createdAt,value
2022-11-26T00:00:21.841Z,70.45
2022-11-26T00:02:28.660Z,76.72
2022-11-26T00:04:33.218Z,73.05
2022-11-26T00:06:39.822Z,70.40
2022-11-26T00:08:44.220Z,68.35
2022-11-26T00:10:51.227Z,60.97
2022-11-26T00:12:58.875Z,64.68
2022-11-26T00:15:16.038Z,66.38
2022-11-26T00:17:21.207Z,67.28
2022-11-26T00:19:25.697Z,63.13
2022-11-26T00:21:37.057Z,63.10
2022-11-26T00:23:41.332Z,59.60
2022-11-26T00:25:48.776Z,56.75
2022-11-26T00:27:55.419Z,54.95
2022-11-26T00:30:01.366Z,60.65
2022-11-26T00:32:10.434Z,57.40
2022-11-26T00:34:14.863Z,60.15
2022-11-26T00:36:22.175Z,56.65
2022-11-26T00:38:27.513Z,60.20
2022-11-26T00:40:34.839Z,62.30
2022-11-26T00:42:43.568Z,54.83
2022-11-26T00:44:50.107Z,62.42
2022-11-26T00:46:56.041Z,54.95
2022-11-26T00:49:00.781Z,52.30
2022-11-26T00:51:05.355Z,55.85
2022-11-26T00:53:13.945Z,64.65
2022-11-26T00:55:30.605Z,70.18
2022-11-26T00:57:35.224Z,72.25
2022-11-26T00:59:39.546Z,71.85
2022-11-26T01:01:43.960Z,63.42
2022-11-26T01:03:50.011Z,56.20
2022-11-26T01:05:56.174Z,57.55
2022-11-26T01:08:03.934Z,59.72
2022-11-26T01:10:15.733Z,58.78
2022-11-26T01:12:20.607Z,65.97
2022-11-26T01:14:25.259Z,57.50
2022-11-26T01:16:31.496Z,66.13
2022-11-26T01:18:37.144Z,59.80
2022-11-26T01:20:43.470Z,48.70
2022-11-26T01:22:49.746Z,60.13
2022-11-26T01:24:53.999Z,59.63
2022-11-26T01:26:58.359Z,55.80
2022-11-26T01:29:02.774Z,59.00
2022-11-26T01:31:15.974Z,55.05
2022-11-26T01:33:21.039Z,55.38
2022-11-26T01:35:25.757Z,54.70
2022-11-26T01:37:31.468Z,51.50
2022-11-26T01:39:36.153Z,61.35
2022-11-26T01:41:46.164Z,50.45
2022-11-26T01:45:58.229Z,54.03
2022-11-26T01:48:02.534Z,49.75
2022-11-26T01:50:43.772Z,55.03
2022-11-26T01:52:50.055Z,56.33
2022-11-26T01:54:55.616Z,55.05
2022-11-26T01:57:09.281Z,52.67
2022-11-26T01:59:19.866Z,51.67
2022-11-26T02:01:24.262Z,55.10
2022-11-26T02:03:30.532Z,66.78
2022-11-26T02:05:41.900Z,54.95
2022-11-26T02:07:46.433Z,60.33
2022-11-26T02:09:52.829Z,59.30
2022-11-26T02:11:57.469Z,67.07
2022-11-26T02:14:06.066Z,58.83
2022-11-26T02:16:19.583Z,62.72
2022-11-26T02:18:26.361Z,66.50
2022-11-26T02:20:46.636Z,60.05
2022-11-26T02:23:29.617Z,56.05
2022-11-26T02:25:52.384Z,58.30
2022-11-26T02:28:16.970Z,56.28
2022-11-26T02:30:22.930Z,51.45
2022-11-26T02:32:33.472Z,56.53
2022-11-26T02:34:44.985Z,57.45
2022-11-26T02:36:55.323Z,55.65
2022-11-26T02:39:11.586Z,57.40
2022-11-26T02:41:15.770Z,57.20
2022-11-26T02:43:21.865Z,59.38
2022-11-26T02:45:32.625Z,70.47
2022-11-26T02:47:41.212Z,158.95
2022-11-26T02:49:47.224Z,183.75
2022-11-26T02:51:55.093Z,136.48
2022-11-26T02:54:00.907Z,174.85
2022-11-26T02:56:09.207Z,100.65
2022-11-26T02:58:15.730Z,91.43
2022-11-26T03:00:20.876Z,102.07
2022-11-26T03:02:33.445Z,95.00
2022-11-26T03:04:41.164Z,117.38
2022-11-26T03:06:45.985Z,118.05
2022-11-26T03:08:51.192Z,122.20
2022-11-26T03:10:55.531Z,104.88
2022-11-26T03:12:59.946Z,121.25
2022-11-26T03:15:04.741Z,108.60
2022-11-26T03:17:09.404Z,87.68
2022-11-26T03:19:15.383Z,81.63
2022-11-26T03:21:19.696Z,84.30
2022-11-26T03:23:23.962Z,73.55
2022-11-26T03:25:28.687Z,74.55
2022-11-26T03:27:33.202Z,66.32
2022-11-26T03:29:37.579Z,70.70
2022-11-26T03:31:41.861Z,66.80
2022-11-26T03:33:46.385Z,67.80
2022-11-26T03:35:52.217Z,62.78
2022-11-26T03:37:56.737Z,57.45
2022-11-26T03:40:01.209Z,59.85
2022-11-26T03:42:06.881Z,53.35
2022-11-26T03:44:11.598Z,53.13
2022-11-26T03:46:16.028Z,55.22
2022-11-26T03:48:21.245Z,52.00
2022-11-26T03:50:25.760Z,43.75
2022-11-26T03:52:32.105Z,52.30
2022-11-26T03:54:36.604Z,51.95
2022-11-26T03:56:41.167Z,56.88
2022-11-26T03:58:45.493Z,48.17
2022-11-26T04:00:49.960Z,46.03
2022-11-26T04:02:54.167Z,46.67
2022-11-26T04:04:58.421Z,42.47
2022-11-26T04:07:02.717Z,41.80
2022-11-26T04:09:08.905Z,41.97
2022-11-26T04:11:13.251Z,51.75
2022-11-26T04:13:17.630Z,52.75
2022-11-26T04:15:22.073Z,53.08
2022-11-26T04:17:26.447Z,50.90
2022-11-26T04:19:30.823Z,48.10
2022-11-26T04:21:35.252Z,51.03
2022-11-26T04:23:39.472Z,47.78
2022-11-26T04:25:45.268Z,52.03
2022-11-26T04:27:49.534Z,46.75
2022-11-26T04:29:53.839Z,60.60
2022-11-26T04:31:58.586Z,55.85
2022-11-26T04:34:02.921Z,72.00
2022-11-26T04:36:07.769Z,79.10
2022-11-26T04:38:12.182Z,85.68
2022-11-26T04:40:16.583Z,66.10
2022-11-26T04:42:22.972Z,74.13
2022-11-26T04:44:27.481Z,70.80
2022-11-26T04:46:31.826Z,68.22
2022-11-26T04:48:36.356Z,60.50
2022-11-26T04:50:40.674Z,60.92
2022-11-26T04:52:44.916Z,53.67
2022-11-26T04:54:49.564Z,58.15
2022-11-26T04:56:53.885Z,55.92
2022-11-26T04:58:59.773Z,56.30
2022-11-26T05:01:04.316Z,51.80
2022-11-26T05:03:08.678Z,62.78
2022-11-26T05:05:14.167Z,55.83
2022-11-26T05:07:18.709Z,51.28
2022-11-26T05:09:23.073Z,53.65
2022-11-26T05:11:28.653Z,52.33
2022-11-26T05:13:33.243Z,51.53
2022-11-26T05:15:39.258Z,52.33
2022-11-26T05:17:46.650Z,51.85
2022-11-26T05:19:51.162Z,51.47
2022-11-26T05:21:55.841Z,53.00
2022-11-26T05:24:00.127Z,51.28
2022-11-26T05:26:04.358Z,51.92
2022-11-26T05:28:08.668Z,54.00
2022-11-26T05:30:14.272Z,60.45
2022-11-26T05:32:20.039Z,57.33
2022-11-26T05:34:24.309Z,48.78
2022-11-26T05:36:28.584Z,56.97
2022-11-26T05:38:32.862Z,55.75
2022-11-26T05:40:37.141Z,58.65
2022-11-26T05:42:41.724Z,58.67
2022-11-26T05:44:45.931Z,54.20
2022-11-26T05:46:51.824Z,54.17
2022-11-26T05:48:57.986Z,60.15
2022-11-26T05:51:03.475Z,53.63
2022-11-26T05:53:10.989Z,55.50
2022-11-26T05:55:16.815Z,53.20
2022-11-26T05:57:21.384Z,51.25
2022-11-26T05:59:25.646Z,53.42
2022-11-26T06:01:29.795Z,52.45
2022-11-26T06:03:33.957Z,57.53
2022-11-26T06:05:39.881Z,51.78
2022-11-26T06:07:45.109Z,56.10
2022-11-26T06:09:49.469Z,57.63
2022-11-26T06:11:53.920Z,52.30
2022-11-26T06:13:59.327Z,53.28
2022-11-26T06:16:03.509Z,48.50
2022-11-26T06:18:07.797Z,52.78
2022-11-26T06:20:13.661Z,54.50
2022-11-26T06:22:19.396Z,55.83
2022-11-26T06:24:23.572Z,55.10
2022-11-26T06:26:27.775Z,65.00
2022-11-26T06:28:31.931Z,68.07
2022-11-26T06:30:36.048Z,66.85
2022-11-26T06:32:40.141Z,76.10
2022-11-26T06:34:44.644Z,75.80
2022-11-26T06:36:49.273Z,80.82
2022-11-26T06:38:54.724Z,78.00
2022-11-26T06:41:00.550Z,89.78
2022-11-26T06:43:05.013Z,84.38
2022-11-26T06:45:10.228Z,96.43
2022-11-26T06:47:14.988Z,98.32
2022-11-26T06:49:19.339Z,87.85
2022-11-26T06:51:27.824Z,88.30
2022-11-26T06:53:32.063Z,90.90
2022-11-26T06:55:38.903Z,95.18
2022-11-26T06:57:43.053Z,91.43
2022-11-26T06:59:50.069Z,88.13
2022-11-26T07:01:55.067Z,98.50
2022-11-26T07:03:59.370Z,88.95
2022-11-26T07:06:03.673Z,92.45
2022-11-26T07:08:07.771Z,92.63
2022-11-26T07:10:15.160Z,92.60
2022-11-26T07:12:20.638Z,92.55
2022-11-26T07:14:24.776Z,102.03
2022-11-26T07:16:29.638Z,91.10
2022-11-26T07:18:34.321Z,88.68
2022-11-26T07:20:38.955Z,87.40
2022-11-26T07:22:43.114Z,85.22
2022-11-26T07:24:47.288Z,86.30
2022-11-26T07:26:51.547Z,88.82
2022-11-26T07:28:57.242Z,94.32
2022-11-26T07:31:02.680Z,91.95
2022-11-26T07:33:07.111Z,93.78
2022-11-26T07:35:11.186Z,92.47
2022-11-26T07:37:15.302Z,94.95
2022-11-26T07:39:19.376Z,93.75
2022-11-26T07:41:24.093Z,94.88
2022-11-26T07:43:28.271Z,100.53
2022-11-26T07:45:36.776Z,108.50
2022-11-26T07:47:40.978Z,99.28
2022-11-26T07:49:45.172Z,100.90
2022-11-26T07:51:49.513Z,89.80
2022-11-26T07:53:54.334Z,100.05
2022-11-26T07:55:58.452Z,109.43
2022-11-26T07:58:03.010Z,117.68
2022-11-26T08:00:10.160Z,147.32
2022-11-26T08:02:18.899Z,149.80
2022-11-26T08:04:23.069Z,140.40
2022-11-26T08:06:29.787Z,145.98
2022-11-26T08:08:35.546Z,130.77
2022-11-26T08:10:40.259Z,122.60
2022-11-26T08:12:44.483Z,110.60
2022-11-26T08:14:48.550Z,109.45
2022-11-26T08:16:54.826Z,116.03
2022-11-26T08:19:01.926Z,108.50
2022-11-26T08:21:06.811Z,114.35
2022-11-26T08:23:10.973Z,117.47
2022-11-26T08:25:15.209Z,104.55
2022-11-26T08:27:19.329Z,112.95
2022-11-26T08:29:23.504Z,106.45
2022-11-26T08:31:28.428Z,106.57
2022-11-26T08:33:32.913Z,104.40
2022-11-26T08:36:05.029Z,116.10
2022-11-26T08:38:02.983Z,102.35
2022-11-26T08:40:08.748Z,105.15
2022-11-26T08:42:12.784Z,105.43
2022-11-26T08:44:17.172Z,105.13
2022-11-26T08:46:22.797Z,104.80
2022-11-26T08:48:31.736Z,106.97
2022-11-26T08:50:37.526Z,105.63
2022-11-26T08:52:42.737Z,109.85
2022-11-26T08:54:47.060Z,108.72
2022-11-26T08:56:51.486Z,109.68
2022-11-26T08:58:55.710Z,105.97
2022-11-26T09:00:59.914Z,114.57
2022-11-26T09:03:04.289Z,112.07
2022-11-26T09:05:09.235Z,106.57
2022-11-26T09:07:15.061Z,106.53
2022-11-26T09:09:19.167Z,109.78
2022-11-26T09:11:23.634Z,108.65
2022-11-26T09:13:28.241Z,116.70
2022-11-26T09:15:32.378Z,115.07
2022-11-26T09:17:36.553Z,119.28
2022-11-26T09:19:40.628Z,117.55
2022-11-26T09:21:45.844Z,125.07
2022-11-26T09:23:51.484Z,125.78
2022-11-26T09:25:55.523Z,125.63
2022-11-26T09:27:59.845Z,124.63
2022-11-26T09:30:04.055Z,127.38
2022-11-26T09:32:24.456Z,130.82
2022-11-26T09:34:30.274Z,138.75
2022-11-26T09:36:35.816Z,125.90
2022-11-26T09:38:40.107Z,114.90
2022-11-26T09:40:56.246Z,124.15
2022-11-26T09:43:08.873Z,122.78
2022-11-26T09:45:22.881Z,109.72
2022-11-26T09:47:29.135Z,117.93
2022-11-26T09:49:37.540Z,123.18
2022-11-26T09:51:43.773Z,121.90
2022-11-26T09:53:51.355Z,105.78
2022-11-26T09:55:58.813Z,110.95
2022-11-26T09:58:12.255Z,103.75
2022-11-26T10:00:26.014Z,103.50
2022-11-26T10:02:30.339Z,101.00
2022-11-26T10:04:37.835Z,113.60
2022-11-26T10:06:51.425Z,119.63
2022-11-26T10:09:17.860Z,110.43
2022-11-26T10:11:32.433Z,108.80
2022-11-26T10:13:45.734Z,99.57
2022-11-26T10:16:03.954Z,101.47
2022-11-26T10:18:22.087Z,91.68
2022-11-26T10:20:51.146Z,95.85
2022-11-26T10:23:00.552Z,92.10
2022-11-26T10:25:15.035Z,92.20
2022-11-26T10:27:23.164Z,93.43
2022-11-26T10:29:29.208Z,84.40
2022-11-26T10:31:34.679Z,89.10
2022-11-26T10:33:47.048Z,84.88
2022-11-26T10:35:51.862Z,91.53
2022-11-26T10:37:57.212Z,86.18
2022-11-26T10:40:17.375Z,79.38
2022-11-26T10:42:24.148Z,82.38
2022-11-26T10:47:24.974Z,86.78
2022-11-26T10:49:30.905Z,91.90
2022-11-26T10:51:37.768Z,81.03
2022-11-26T10:53:53.695Z,85.30
2022-11-26T10:56:00.760Z,83.28
2022-11-26T10:58:08.857Z,81.50
2022-11-26T11:00:32.727Z,86.72
2022-11-26T11:02:39.348Z,88.50
2022-11-26T11:04:47.419Z,92.57
2022-11-26T11:06:51.997Z,89.05
2022-11-26T11:08:56.922Z,89.68
2022-11-26T11:11:02.953Z,87.78
2022-11-26T11:13:15.371Z,98.68
2022-11-26T11:15:25.162Z,99.78
2022-11-26T11:17:35.926Z,96.75
2022-11-26T11:19:40.890Z,101.85
2022-11-26T11:21:48.382Z,92.97
2022-11-26T11:24:08.334Z,98.40
2022-11-26T11:26:22.019Z,106.07
2022-11-26T11:28:29.512Z,95.35
2022-11-26T11:30:36.709Z,99.25
2022-11-26T11:32:41.884Z,104.45
2022-11-26T11:34:47.367Z,84.45
2022-11-26T11:37:03.168Z,92.55
2022-11-26T11:39:07.373Z,92.03
2022-11-26T11:41:20.185Z,93.40
2022-11-26T11:43:25.572Z,92.55
2022-11-26T11:45:42.596Z,84.65
2022-11-26T11:47:52.816Z,96.55
2022-11-26T11:50:21.317Z,93.40
2022-11-26T11:52:36.428Z,86.13
2022-11-26T11:54:52.675Z,93.45
2022-11-26T11:57:03.747Z,94.80
2022-11-26T11:59:24.352Z,97.38
2022-11-26T12:01:42.744Z,94.60
2022-11-26T12:04:17.852Z,97.80
2022-11-26T12:06:36.744Z,95.40
2022-11-26T12:08:50.240Z,92.38
2022-11-26T12:11:06.791Z,92.78
2022-11-26T12:13:14.522Z,93.85
2022-11-26T12:15:26.740Z,91.30
2022-11-26T12:17:37.398Z,86.15
2022-11-26T12:19:48.767Z,87.85
2022-11-26T12:22:02.805Z,62.92
2022-11-26T12:24:14.973Z,76.25
2022-11-26T12:26:25.598Z,86.63
2022-11-26T12:28:32.783Z,85.45
2022-11-26T12:30:45.703Z,86.95
2022-11-26T12:32:55.356Z,87.07
2022-11-26T12:35:05.888Z,91.50
2022-11-26T12:37:19.106Z,91.35
2022-11-26T12:39:31.975Z,97.57
2022-11-26T12:41:42.662Z,92.18
2022-11-26T12:43:52.031Z,93.35
2022-11-26T12:46:00.455Z,87.75
2022-11-26T12:48:15.805Z,91.18
2022-11-26T12:50:27.521Z,85.03
2022-11-26T12:52:39.178Z,87.97
2022-11-26T12:54:55.181Z,87.32
2022-11-26T12:57:05.355Z,101.05
2022-11-26T12:59:18.725Z,88.30
2022-11-26T13:01:24.295Z,99.10
2022-11-26T13:03:33.724Z,101.57
2022-11-26T13:05:49.960Z,105.50
2022-11-26T13:08:10.970Z,97.15
2022-11-26T13:10:26.177Z,111.03
2022-11-26T13:12:41.452Z,98.72
2022-11-26T13:14:53.012Z,99.70
2022-11-26T13:17:03.693Z,92.28
2022-11-26T13:19:14.526Z,95.60
2022-11-26T13:21:35.808Z,94.82
2022-11-26T13:24:03.997Z,90.72
2022-11-26T13:26:30.295Z,88.25
2022-11-26T13:28:52.006Z,88.60
2022-11-26T13:31:09.178Z,102.68
2022-11-26T13:33:38.304Z,87.22
2022-11-26T13:36:16.246Z,89.13
2022-11-26T13:38:29.305Z,87.70
2022-11-26T13:40:59.278Z,92.68
2022-11-26T13:45:57.236Z,78.70
2022-11-26T13:48:07.802Z,83.40
2022-11-26T13:50:16.536Z,82.43
2022-11-26T13:52:25.820Z,85.65
2022-11-26T13:54:37.334Z,85.80
2022-11-26T13:56:43.788Z,83.40
2022-11-26T13:58:52.100Z,92.65
2022-11-26T14:00:56.344Z,85.03
2022-11-26T14:03:01.255Z,92.45
2022-11-26T14:05:08.438Z,90.82
2022-11-26T14:07:22.422Z,98.13
2022-11-26T14:09:50.020Z,92.32
2022-11-26T14:11:57.305Z,90.45
2022-11-26T14:14:31.923Z,90.28
2022-11-26T14:17:35.198Z,91.80
2022-11-26T14:20:01.765Z,83.45
2022-11-26T14:22:07.802Z,88.75
2022-11-26T14:24:12.052Z,89.45
2022-11-26T14:26:20.697Z,87.50
2022-11-26T14:28:25.103Z,86.93
2022-11-26T14:30:29.635Z,88.85
2022-11-26T14:32:38.420Z,85.65
2022-11-26T14:34:48.751Z,91.95
2022-11-26T14:36:56.977Z,92.03
2022-11-26T14:39:08.811Z,85.05
2022-11-26T14:41:13.053Z,86.80
2022-11-26T14:43:20.662Z,85.88
2022-11-26T14:45:25.709Z,88.55
2022-11-26T14:47:35.086Z,84.32
2022-11-26T14:49:41.661Z,88.43
2022-11-26T14:51:47.228Z,90.93
2022-11-26T14:53:52.078Z,91.68
2022-11-26T14:55:56.586Z,95.78
2022-11-26T14:58:08.959Z,85.47
2022-11-26T15:00:25.049Z,87.32
2022-11-26T15:02:31.993Z,93.15
2022-11-26T15:04:38.996Z,88.45
2022-11-26T15:06:45.621Z,85.93
2022-11-26T15:08:50.108Z,90.90
2022-11-26T15:10:57.412Z,94.10
2022-11-26T15:13:06.013Z,94.35
2022-11-26T15:15:15.987Z,94.80
2022-11-26T15:19:31.882Z,95.32
2022-11-26T15:21:37.123Z,90.40
2022-11-26T15:23:41.822Z,92.78
2022-11-26T15:25:51.394Z,92.40
2022-11-26T15:28:00.349Z,97.15
2022-11-26T15:30:05.420Z,103.30
2022-11-26T15:32:30.170Z,90.00
2022-11-26T15:34:35.068Z,97.43
2022-11-26T15:36:39.351Z,105.22
2022-11-26T15:39:03.092Z,107.47
2022-11-26T15:41:09.505Z,113.32
2022-11-26T15:43:23.636Z,106.13
2022-11-26T15:45:48.142Z,110.95
2022-11-26T15:47:55.385Z,114.30
2022-11-26T15:50:03.138Z,118.22
2022-11-26T15:52:18.914Z,117.00
2022-11-26T15:54:30.872Z,121.57
2022-11-26T15:56:43.175Z,122.00
2022-11-26T15:58:53.165Z,122.28
2022-11-26T16:01:01.639Z,118.95
2022-11-26T16:03:43.758Z,121.20
2022-11-26T16:05:56.794Z,127.32
2022-11-26T16:08:07.421Z,129.88
2022-11-26T16:10:22.089Z,136.52
2022-11-26T16:12:29.422Z,131.05
2022-11-26T16:14:35.479Z,138.45
2022-11-26T16:16:41.632Z,132.20
2022-11-26T16:18:54.494Z,129.02
2022-11-26T16:21:10.333Z,117.97
2022-11-26T16:23:23.821Z,136.80
2022-11-26T16:25:32.040Z,130.90
2022-11-26T16:27:36.558Z,131.73
2022-11-26T16:29:43.108Z,128.52
2022-11-26T16:31:47.336Z,138.73
2022-11-26T16:33:53.117Z,132.02
2022-11-26T16:35:57.844Z,120.70
2022-11-26T16:38:02.215Z,129.40
2022-11-26T16:40:14.887Z,122.18
2022-11-26T16:42:21.088Z,112.15
2022-11-26T16:44:25.245Z,116.55
2022-11-26T16:46:29.365Z,118.10
2022-11-26T16:48:34.216Z,111.20
2022-11-26T16:50:42.244Z,110.95
2022-11-26T16:52:46.491Z,99.95
2022-11-26T16:54:51.295Z,116.53
2022-11-26T16:56:56.230Z,104.88
2022-11-26T16:59:02.778Z,94.40
2022-11-26T17:01:07.099Z,98.40
2022-11-26T17:03:14.354Z,102.90
2022-11-26T17:05:19.292Z,97.85
2022-11-26T17:07:32.185Z,104.15
2022-11-26T17:09:36.548Z,99.00
2022-11-26T17:11:40.754Z,107.00
2022-11-26T17:13:44.857Z,99.55
2022-11-26T17:15:49.504Z,102.25
2022-11-26T17:17:57.047Z,105.45
2022-11-26T17:20:01.592Z,120.88
2022-11-26T17:22:17.372Z,100.80
2022-11-26T17:24:27.048Z,96.68
2022-11-26T17:26:36.137Z,107.57
2022-11-26T17:28:40.359Z,101.50
2022-11-26T17:30:47.162Z,94.70
2022-11-26T17:32:54.878Z,102.07
2022-11-26T17:34:59.092Z,105.20
2022-11-26T17:37:03.461Z,99.03
2022-11-26T17:39:07.624Z,111.40
2022-11-26T17:41:13.327Z,113.53
2022-11-26T17:43:17.918Z,108.93
2022-11-26T17:45:22.359Z,105.90
2022-11-26T17:47:28.994Z,105.85
2022-11-26T17:49:33.856Z,107.60
2022-11-26T17:51:38.939Z,102.53
2022-11-26T17:53:44.383Z,105.40
2022-11-26T17:55:49.756Z,110.07
2022-11-26T17:57:56.101Z,106.95
2022-11-26T18:00:01.363Z,109.00
2022-11-26T18:02:06.102Z,109.68
2022-11-26T18:04:25.063Z,109.18
2022-11-26T18:06:43.691Z,108.03
2022-11-26T18:08:47.936Z,103.20
2022-11-26T18:10:52.261Z,105.13
2022-11-26T18:12:58.558Z,103.70
2022-11-26T18:15:04.126Z,103.65
2022-11-26T18:17:10.459Z,99.95
2022-11-26T18:19:17.643Z,98.28
2022-11-26T18:21:21.746Z,98.78
2022-11-26T18:23:25.936Z,97.50
2022-11-26T18:25:30.515Z,93.47
2022-11-26T18:27:34.921Z,90.80
2022-11-26T18:29:41.241Z,94.05
2022-11-26T18:31:45.688Z,91.78
2022-11-26T18:33:49.835Z,91.93
2022-11-26T18:35:54.242Z,97.90
2022-11-26T18:37:59.644Z,101.10
2022-11-26T18:40:05.484Z,103.20
2022-11-26T18:44:34.048Z,106.78
2022-11-26T18:46:39.971Z,97.07
2022-11-26T18:48:47.290Z,103.05
2022-11-26T18:50:57.479Z,97.18
2022-11-26T18:55:08.519Z,99.82
2022-11-26T18:57:12.896Z,101.63
2022-11-26T18:59:17.680Z,96.20
2022-11-26T19:01:25.382Z,108.53
2022-11-26T19:03:33.341Z,97.10
2022-11-26T19:05:39.207Z,91.50
2022-11-26T19:07:45.150Z,93.20
2022-11-26T19:10:10.576Z,109.68
2022-11-26T19:12:15.844Z,102.20
2022-11-26T19:14:24.279Z,98.85
2022-11-26T19:16:30.376Z,92.80
2022-11-26T19:18:37.158Z,93.22
2022-11-26T19:20:49.526Z,97.72
2022-11-26T19:22:54.738Z,97.07
2022-11-26T19:24:59.307Z,88.03
2022-11-26T19:27:04.021Z,94.18
2022-11-26T19:29:10.395Z,104.15
2022-11-26T19:31:17.063Z,117.97
2022-11-26T19:33:21.803Z,117.47
2022-11-26T19:35:27.835Z,108.28
2022-11-26T19:37:32.093Z,102.45
2022-11-26T19:39:37.625Z,94.65
2022-11-26T19:41:42.192Z,111.60
2022-11-26T19:43:56.207Z,94.43
2022-11-26T19:46:05.214Z,88.00
2022-11-26T19:48:09.535Z,94.22
2022-11-26T19:50:13.718Z,90.15
2022-11-26T19:52:20.610Z,86.72
2022-11-26T19:54:27.208Z,90.88
2022-11-26T19:56:32.919Z,91.35
2022-11-26T19:58:38.883Z,92.93
2022-11-26T20:00:44.679Z,88.13
2022-11-26T20:02:49.152Z,91.28
2022-11-26T20:04:56.859Z,88.45
2022-11-26T20:07:04.097Z,90.93
2022-11-26T20:09:14.881Z,95.57
2022-11-26T20:11:20.617Z,98.03
2022-11-26T20:13:25.600Z,98.05
2022-11-26T20:15:29.962Z,87.63
2022-11-26T20:17:34.514Z,94.53
2022-11-26T20:19:38.889Z,89.68
2022-11-26T20:21:43.209Z,86.88
2022-11-26T20:23:48.104Z,88.82
2022-11-26T20:25:53.932Z,88.10
2022-11-26T20:27:59.456Z,78.75
2022-11-26T20:30:04.995Z,79.28
2022-11-26T20:32:09.538Z,80.10
2022-11-26T20:34:14.766Z,72.47
2022-11-26T20:36:20.971Z,74.63
2022-11-26T20:38:25.206Z,74.40
2022-11-26T20:40:29.305Z,73.60
2022-11-26T20:42:35.656Z,70.82
2022-11-26T20:44:40.380Z,70.57
2022-11-26T20:46:44.923Z,67.63
2022-11-26T20:48:49.026Z,71.05
2022-11-26T20:50:53.251Z,75.05
2022-11-26T20:52:57.727Z,77.80
2022-11-26T20:55:01.940Z,77.75
2022-11-26T20:57:07.265Z,76.00
2022-11-26T20:59:12.789Z,82.35
2022-11-26T21:01:18.215Z,78.95
2022-11-26T21:03:22.435Z,77.97
2022-11-26T21:05:26.816Z,79.60
2022-11-26T21:07:31.219Z,72.80
2022-11-26T21:09:35.534Z,76.78
2022-11-26T21:11:40.601Z,75.15
2022-11-26T21:13:45.249Z,75.22
2022-11-26T21:15:50.993Z,75.18
2022-11-26T21:17:55.241Z,74.30
2022-11-26T21:19:59.437Z,75.88
2022-11-26T21:22:03.717Z,71.72
2022-11-26T21:24:09.036Z,82.10
2022-11-26T21:26:16.544Z,74.13
2022-11-26T21:28:21.261Z,67.85
2022-11-26T21:30:25.700Z,67.65
2022-11-26T21:32:31.633Z,68.00
2022-11-26T21:34:35.754Z,65.20
2022-11-26T21:36:39.949Z,56.63
2022-11-26T21:38:48.287Z,53.67
2022-11-26T21:40:52.347Z,54.53
2022-11-26T21:42:56.460Z,53.78
2022-11-26T21:45:00.630Z,53.95
2022-11-26T21:47:04.925Z,56.50
2022-11-26T21:49:10.662Z,51.70
2022-11-26T21:51:17.026Z,51.25
2022-11-26T21:53:21.202Z,44.65
2022-11-26T21:55:25.535Z,48.83
2022-11-26T21:57:32.318Z,48.28
2022-11-26T21:59:36.431Z,43.83
2022-11-26T22:01:40.693Z,47.47
2022-11-26T22:03:47.136Z,46.25
2022-11-26T22:05:52.967Z,39.42
2022-11-26T22:07:57.196Z,36.47
2022-11-26T22:10:01.421Z,35.10
2022-11-26T22:12:08.270Z,37.10
2022-11-26T22:14:15.086Z,34.13
2022-11-26T22:16:22.010Z,38.67
2022-11-26T22:18:26.335Z,33.53
2022-11-26T22:20:31.882Z,31.60
2022-11-26T22:22:38.453Z,32.83
2022-11-26T22:24:42.645Z,27.63
2022-11-26T22:26:47.710Z,31.20
2022-11-26T22:28:52.479Z,34.85
2022-11-26T22:30:57.012Z,29.55
2022-11-26T22:33:01.588Z,31.17
2022-11-26T22:35:06.261Z,33.80
2022-11-26T22:37:10.385Z,31.80
2022-11-26T22:39:18.267Z,32.97
2022-11-26T22:41:22.746Z,33.72
2022-11-26T22:43:26.840Z,34.20
2022-11-26T22:45:31.679Z,32.38
2022-11-26T22:47:35.819Z,32.67
2022-11-26T22:49:40.350Z,31.48
2022-11-26T22:51:44.805Z,35.17
2022-11-26T22:53:51.719Z,33.85
2022-11-26T22:55:58.724Z,36.53
2022-11-26T22:58:03.295Z,35.25
2022-11-26T23:00:12.525Z,34.55
2022-11-26T23:02:16.741Z,32.38
2022-11-26T23:04:21.006Z,33.53
2022-11-26T23:06:27.656Z,35.25
2022-11-26T23:08:31.808Z,38.17
2022-11-26T23:10:39.921Z,35.83
2022-11-26T23:12:45.557Z,35.70
2022-11-26T23:14:50.167Z,34.70
2022-11-26T23:16:54.409Z,31.45
2022-11-26T23:18:59.238Z,35.58
2022-11-26T23:21:05.394Z,31.60
2022-11-26T23:23:10.322Z,29.58
2022-11-26T23:25:14.821Z,34.75
2022-11-26T23:27:18.964Z,32.90
2022-11-26T23:29:24.563Z,30.08
2022-11-26T23:31:31.510Z,32.25
2022-11-26T23:33:36.891Z,32.05
2022-11-26T23:35:43.805Z,29.60
2022-11-26T23:37:47.892Z,29.25
2022-11-26T23:39:52.145Z,27.40
2022-11-26T23:41:56.299Z,32.13
2022-11-26T23:44:00.587Z,29.77
2022-11-26T23:46:09.378Z,31.90
2022-11-26T23:48:13.647Z,29.80
2022-11-26T23:50:18.179Z,30.02
2022-11-26T23:52:22.402Z,35.50
2022-11-26T23:54:26.711Z,26.55
2022-11-26T23:56:32.812Z,27.35
2022-11-26T23:58:36.926Z,30.40
